sensor_id;sensor_type;location;lat;lon;timestamp;temperature;humidity
26541;DHT22;14206;50.202;10.948;2024-03-29T00:00:52;5.20;94.80
26541;DHT22;14206;50.202;10.948;2024-03-29T00:03:18;5.20;95.20
26541;DHT22;14206;50.202;10.948;2024-03-29T00:05:44;5.20;95.40
26541;DHT22;14206;50.202;10.948;2024-03-29T00:08:10;5.30;95.20
26541;DHT22;14206;50.202;10.948;2024-03-29T00:10:36;5.30;94.90
26541;DHT22;14206;50.202;10.948;2024-03-29T00:13:02;5.40;94.70
26541;DHT22;14206;50.202;10.948;2024-03-29T00:15:28;5.40;94.70
26541;DHT22;14206;50.202;10.948;2024-03-29T00:17:54;5.40;94.40
26541;DHT22;14206;50.202;10.948;2024-03-29T00:20:20;5.50;94.30
26541;DHT22;14206;50.202;10.948;2024-03-29T00:22:47;5.50;94.20
26541;DHT22;14206;50.202;10.948;2024-03-29T00:25:13;5.60;93.80
26541;DHT22;14206;50.202;10.948;2024-03-29T00:27:38;5.70;93.40
26541;DHT22;14206;50.202;10.948;2024-03-29T00:30:05;5.80;92.80
26541;DHT22;14206;50.202;10.948;2024-03-29T00:32:31;5.90;92.40
26541;DHT22;14206;50.202;10.948;2024-03-29T00:34:57;6.00;92.20
26541;DHT22;14206;50.202;10.948;2024-03-29T00:37:24;6.00;91.70
26541;DHT22;14206;50.202;10.948;2024-03-29T00:39:50;6.00;91.50
26541;DHT22;14206;50.202;10.948;2024-03-29T00:42:16;6.00;91.40
26541;DHT22;14206;50.202;10.948;2024-03-29T00:44:43;5.90;91.50
26541;DHT22;14206;50.202;10.948;2024-03-29T00:47:09;5.90;91.50
26541;DHT22;14206;50.202;10.948;2024-03-29T00:49:35;5.90;91.20
26541;DHT22;14206;50.202;10.948;2024-03-29T00:52:03;5.90;91.00
26541;DHT22;14206;50.202;10.948;2024-03-29T00:54:30;5.90;90.70
26541;DHT22;14206;50.202;10.948;2024-03-29T00:56:56;6.00;90.50
26541;DHT22;14206;50.202;10.948;2024-03-29T00:59:22;6.00;90.30
26541;DHT22;14206;50.202;10.948;2024-03-29T01:01:49;6.00;89.80
26541;DHT22;14206;50.202;10.948;2024-03-29T01:04:15;6.10;89.70
26541;DHT22;14206;50.202;10.948;2024-03-29T01:06:41;6.10;89.40
26541;DHT22;14206;50.202;10.948;2024-03-29T01:09:07;6.10;89.20
26541;DHT22;14206;50.202;10.948;2024-03-29T01:11:40;6.20;88.80
26541;DHT22;14206;50.202;10.948;2024-03-29T01:14:06;6.20;88.60
26541;DHT22;14206;50.202;10.948;2024-03-29T01:16:33;6.20;88.30
26541;DHT22;14206;50.202;10.948;2024-03-29T01:18:59;6.30;87.80
26541;DHT22;14206;50.202;10.948;2024-03-29T01:21:28;6.40;87.30
26541;DHT22;14206;50.202;10.948;2024-03-29T01:23:54;6.40;87.10
26541;DHT22;14206;50.202;10.948;2024-03-29T01:26:19;6.50;87.20
26541;DHT22;14206;50.202;10.948;2024-03-29T01:28:45;6.50;87.00
26541;DHT22;14206;50.202;10.948;2024-03-29T01:31:12;6.50;87.10
26541;DHT22;14206;50.202;10.948;2024-03-29T01:33:38;6.50;86.40
26541;DHT22;14206;50.202;10.948;2024-03-29T01:36:09;6.60;86.50
26541;DHT22;14206;50.202;10.948;2024-03-29T01:38:35;6.60;86.30
26541;DHT22;14206;50.202;10.948;2024-03-29T01:41:01;6.70;86.10
26541;DHT22;14206;50.202;10.948;2024-03-29T01:43:28;6.70;85.90
26541;DHT22;14206;50.202;10.948;2024-03-29T01:45:55;6.70;86.00
26541;DHT22;14206;50.202;10.948;2024-03-29T01:48:23;6.70;85.70
26541;DHT22;14206;50.202;10.948;2024-03-29T01:50:50;6.70;85.70
26541;DHT22;14206;50.202;10.948;2024-03-29T01:53:18;6.80;87.10
26541;DHT22;14206;50.202;10.948;2024-03-29T01:55:45;6.80;87.30
26541;DHT22;14206;50.202;10.948;2024-03-29T01:58:11;6.80;88.50
26541;DHT22;14206;50.202;10.948;2024-03-29T02:01:04;6.80;88.50
26541;DHT22;14206;50.202;10.948;2024-03-29T02:03:31;6.80;88.90
26541;DHT22;14206;50.202;10.948;2024-03-29T02:05:58;6.80;89.40
26541;DHT22;14206;50.202;10.948;2024-03-29T02:08:25;6.80;89.00
26541;DHT22;14206;50.202;10.948;2024-03-29T02:10:51;6.80;89.70
26541;DHT22;14206;50.202;10.948;2024-03-29T02:13:17;6.70;89.60
26541;DHT22;14206;50.202;10.948;2024-03-29T02:15:43;6.70;90.10
26541;DHT22;14206;50.202;10.948;2024-03-29T02:18:09;6.70;90.10
26541;DHT22;14206;50.202;10.948;2024-03-29T02:20:35;6.70;89.00
26541;DHT22;14206;50.202;10.948;2024-03-29T02:23:14;6.70;89.80
26541;DHT22;14206;50.202;10.948;2024-03-29T02:25:41;6.70;89.90
26541;DHT22;14206;50.202;10.948;2024-03-29T02:28:07;6.60;90.20
26541;DHT22;14206;50.202;10.948;2024-03-29T02:30:33;6.60;90.10
26541;DHT22;14206;50.202;10.948;2024-03-29T02:33:00;6.50;90.80
26541;DHT22;14206;50.202;10.948;2024-03-29T02:35:26;6.50;90.70
26541;DHT22;14206;50.202;10.948;2024-03-29T02:37:52;6.40;91.20
26541;DHT22;14206;50.202;10.948;2024-03-29T02:40:19;6.40;91.50
26541;DHT22;14206;50.202;10.948;2024-03-29T02:46:58;6.40;91.80
26541;DHT22;14206;50.202;10.948;2024-03-29T02:49:24;6.30;92.00
26541;DHT22;14206;50.202;10.948;2024-03-29T02:51:50;6.40;92.00
26541;DHT22;14206;50.202;10.948;2024-03-29T02:54:18;6.40;91.90
26541;DHT22;14206;50.202;10.948;2024-03-29T02:56:44;6.40;92.00
26541;DHT22;14206;50.202;10.948;2024-03-29T02:59:10;6.40;91.60
26541;DHT22;14206;50.202;10.948;2024-03-29T03:01:37;6.40;92.00
26541;DHT22;14206;50.202;10.948;2024-03-29T03:04:03;6.40;91.70
26541;DHT22;14206;50.202;10.948;2024-03-29T03:06:29;6.40;91.70
26541;DHT22;14206;50.202;10.948;2024-03-29T03:08:54;6.40;91.30
26541;DHT22;14206;50.202;10.948;2024-03-29T03:11:39;6.40;91.90
26541;DHT22;14206;50.202;10.948;2024-03-29T03:14:05;6.40;91.70
26541;DHT22;14206;50.202;10.948;2024-03-29T03:16:30;6.40;91.60
26541;DHT22;14206;50.202;10.948;2024-03-29T03:18:56;6.40;91.80
26541;DHT22;14206;50.202;10.948;2024-03-29T03:21:22;6.40;92.80
26541;DHT22;14206;50.202;10.948;2024-03-29T03:23:48;6.40;92.10
26541;DHT22;14206;50.202;10.948;2024-03-29T03:26:14;6.40;92.10
26541;DHT22;14206;50.202;10.948;2024-03-29T03:28:40;6.40;91.90
26541;DHT22;14206;50.202;10.948;2024-03-29T03:31:06;6.40;91.80
26541;DHT22;14206;50.202;10.948;2024-03-29T03:33:33;6.40;92.10
26541;DHT22;14206;50.202;10.948;2024-03-29T03:35:58;6.40;91.80
26541;DHT22;14206;50.202;10.948;2024-03-29T03:38:24;6.40;91.80
26541;DHT22;14206;50.202;10.948;2024-03-29T03:40:50;6.40;91.90
26541;DHT22;14206;50.202;10.948;2024-03-29T03:43:16;6.40;91.80
26541;DHT22;14206;50.202;10.948;2024-03-29T03:45:42;6.40;91.90
26541;DHT22;14206;50.202;10.948;2024-03-29T03:48:10;6.40;91.80
26541;DHT22;14206;50.202;10.948;2024-03-29T03:50:37;6.30;92.50
26541;DHT22;14206;50.202;10.948;2024-03-29T03:53:03;6.40;92.10
26541;DHT22;14206;50.202;10.948;2024-03-29T03:55:29;6.40;92.50
26541;DHT22;14206;50.202;10.948;2024-03-29T03:57:56;6.40;92.20
26541;DHT22;14206;50.202;10.948;2024-03-29T04:00:22;6.40;92.30
26541;DHT22;14206;50.202;10.948;2024-03-29T04:02:49;6.40;92.60
26541;DHT22;14206;50.202;10.948;2024-03-29T04:05:19;6.40;92.60
26541;DHT22;14206;50.202;10.948;2024-03-29T04:07:45;6.40;92.70
26541;DHT22;14206;50.202;10.948;2024-03-29T04:10:12;6.40;93.00
26541;DHT22;14206;50.202;10.948;2024-03-29T04:12:38;6.50;93.20
26541;DHT22;14206;50.202;10.948;2024-03-29T04:15:05;6.50;93.10
26541;DHT22;14206;50.202;10.948;2024-03-29T04:17:31;6.60;93.10
26541;DHT22;14206;50.202;10.948;2024-03-29T04:19:58;6.60;92.30
26541;DHT22;14206;50.202;10.948;2024-03-29T04:22:24;6.60;92.20
26541;DHT22;14206;50.202;10.948;2024-03-29T04:24:51;6.60;92.60
26541;DHT22;14206;50.202;10.948;2024-03-29T04:27:17;6.60;92.90
26541;DHT22;14206;50.202;10.948;2024-03-29T04:29:42;6.50;92.90
26541;DHT22;14206;50.202;10.948;2024-03-29T04:32:08;6.50;93.10
26541;DHT22;14206;50.202;10.948;2024-03-29T04:34:34;6.50;93.50
26541;DHT22;14206;50.202;10.948;2024-03-29T04:37:00;6.50;93.40
26541;DHT22;14206;50.202;10.948;2024-03-29T04:39:27;6.50;93.50
26541;DHT22;14206;50.202;10.948;2024-03-29T04:41:53;6.60;93.50
26541;DHT22;14206;50.202;10.948;2024-03-29T04:44:27;6.60;93.80
26541;DHT22;14206;50.202;10.948;2024-03-29T04:46:53;6.60;93.80
26541;DHT22;14206;50.202;10.948;2024-03-29T04:49:22;6.70;94.40
26541;DHT22;14206;50.202;10.948;2024-03-29T04:51:54;6.70;94.60
26541;DHT22;14206;50.202;10.948;2024-03-29T04:54:20;6.70;94.80
26541;DHT22;14206;50.202;10.948;2024-03-29T04:56:46;6.80;93.90
26541;DHT22;14206;50.202;10.948;2024-03-29T04:59:12;6.80;93.40
26541;DHT22;14206;50.202;10.948;2024-03-29T05:01:39;6.80;94.20
26541;DHT22;14206;50.202;10.948;2024-03-29T05:04:05;6.80;93.50
26541;DHT22;14206;50.202;10.948;2024-03-29T05:06:31;6.90;93.80
26541;DHT22;14206;50.202;10.948;2024-03-29T05:08:57;6.90;93.80
26541;DHT22;14206;50.202;10.948;2024-03-29T05:11:23;6.90;94.60
26541;DHT22;14206;50.202;10.948;2024-03-29T05:13:49;6.90;94.30
26541;DHT22;14206;50.202;10.948;2024-03-29T05:16:15;6.90;93.90
26541;DHT22;14206;50.202;10.948;2024-03-29T05:18:41;7.00;93.50
26541;DHT22;14206;50.202;10.948;2024-03-29T05:21:07;6.90;94.10
26541;DHT22;14206;50.202;10.948;2024-03-29T05:23:33;6.90;94.30
26541;DHT22;14206;50.202;10.948;2024-03-29T05:25:59;6.90;94.10
26541;DHT22;14206;50.202;10.948;2024-03-29T05:28:25;6.90;94.20
26541;DHT22;14206;50.202;10.948;2024-03-29T05:30:52;6.90;93.90
26541;DHT22;14206;50.202;10.948;2024-03-29T05:33:17;6.80;94.40
26541;DHT22;14206;50.202;10.948;2024-03-29T05:35:43;6.80;94.10
26541;DHT22;14206;50.202;10.948;2024-03-29T05:38:09;6.80;93.90
26541;DHT22;14206;50.202;10.948;2024-03-29T05:40:35;6.90;94.20
26541;DHT22;14206;50.202;10.948;2024-03-29T05:43:03;6.90;94.70
26541;DHT22;14206;50.202;10.948;2024-03-29T05:45:30;6.90;94.80
26541;DHT22;14206;50.202;10.948;2024-03-29T05:47:58;6.90;94.70
26541;DHT22;14206;50.202;10.948;2024-03-29T05:50:25;6.90;95.50
26541;DHT22;14206;50.202;10.948;2024-03-29T05:52:52;6.90;94.90
26541;DHT22;14206;50.202;10.948;2024-03-29T05:55:18;6.90;94.50
26541;DHT22;14206;50.202;10.948;2024-03-29T05:57:44;6.90;94.90
26541;DHT22;14206;50.202;10.948;2024-03-29T06:00:14;7.00;95.70
26541;DHT22;14206;50.202;10.948;2024-03-29T06:02:41;7.00;95.30
26541;DHT22;14206;50.202;10.948;2024-03-29T06:05:08;7.10;96.00
26541;DHT22;14206;50.202;10.948;2024-03-29T06:07:35;7.00;96.60
26541;DHT22;14206;50.202;10.948;2024-03-29T06:10:01;6.90;96.60
26541;DHT22;14206;50.202;10.948;2024-03-29T06:12:31;6.90;96.60
26541;DHT22;14206;50.202;10.948;2024-03-29T06:14:57;7.00;96.60
26541;DHT22;14206;50.202;10.948;2024-03-29T06:17:42;7.00;96.60
26541;DHT22;14206;50.202;10.948;2024-03-29T06:20:08;7.10;96.60
26541;DHT22;14206;50.202;10.948;2024-03-29T06:22:35;7.10;96.60
26541;DHT22;14206;50.202;10.948;2024-03-29T06:25:00;7.10;96.60
26541;DHT22;14206;50.202;10.948;2024-03-29T06:27:32;7.10;96.60
26541;DHT22;14206;50.202;10.948;2024-03-29T06:29:59;7.10;96.60
26541;DHT22;14206;50.202;10.948;2024-03-29T06:32:25;7.10;96.60
26541;DHT22;14206;50.202;10.948;2024-03-29T06:38:07;7.00;96.60
26541;DHT22;14206;50.202;10.948;2024-03-29T06:44:56;7.10;96.60
26541;DHT22;14206;50.202;10.948;2024-03-29T06:47:25;7.10;96.60
26541;DHT22;14206;50.202;10.948;2024-03-29T06:49:51;7.10;96.60
26541;DHT22;14206;50.202;10.948;2024-03-29T06:52:16;7.20;96.60
26541;DHT22;14206;50.202;10.948;2024-03-29T06:54:42;7.20;96.60
26541;DHT22;14206;50.202;10.948;2024-03-29T06:57:08;7.30;96.60
26541;DHT22;14206;50.202;10.948;2024-03-29T06:59:35;7.30;96.60
26541;DHT22;14206;50.202;10.948;2024-03-29T07:02:01;7.30;96.60
26541;DHT22;14206;50.202;10.948;2024-03-29T07:04:28;7.30;96.60
26541;DHT22;14206;50.202;10.948;2024-03-29T07:06:54;7.20;96.60
26541;DHT22;14206;50.202;10.948;2024-03-29T07:09:21;7.20;96.60
26541;DHT22;14206;50.202;10.948;2024-03-29T07:11:48;7.20;96.60
26541;DHT22;14206;50.202;10.948;2024-03-29T07:14:15;7.30;96.60
26541;DHT22;14206;50.202;10.948;2024-03-29T07:16:45;7.40;96.60
26541;DHT22;14206;50.202;10.948;2024-03-29T07:19:11;7.40;96.60
26541;DHT22;14206;50.202;10.948;2024-03-29T07:21:47;7.50;96.60
26541;DHT22;14206;50.202;10.948;2024-03-29T07:24:13;7.50;96.60
26541;DHT22;14206;50.202;10.948;2024-03-29T07:26:39;7.60;96.60
26541;DHT22;14206;50.202;10.948;2024-03-29T07:29:06;7.80;96.60
26541;DHT22;14206;50.202;10.948;2024-03-29T07:31:33;7.90;96.60
26541;DHT22;14206;50.202;10.948;2024-03-29T07:33:59;8.00;96.60
26541;DHT22;14206;50.202;10.948;2024-03-29T07:36:25;8.20;96.60
26541;DHT22;14206;50.202;10.948;2024-03-29T07:38:52;8.30;96.60
26541;DHT22;14206;50.202;10.948;2024-03-29T07:41:18;8.40;96.60
26541;DHT22;14206;50.202;10.948;2024-03-29T07:43:55;8.40;96.60
26541;DHT22;14206;50.202;10.948;2024-03-29T07:46:38;8.50;96.60
26541;DHT22;14206;50.202;10.948;2024-03-29T07:49:05;8.60;96.60
26541;DHT22;14206;50.202;10.948;2024-03-29T07:51:31;8.90;96.60
26541;DHT22;14206;50.202;10.948;2024-03-29T07:53:57;9.10;96.60
26541;DHT22;14206;50.202;10.948;2024-03-29T07:56:23;9.20;96.60
26541;DHT22;14206;50.202;10.948;2024-03-29T07:58:54;9.30;96.60
26541;DHT22;14206;50.202;10.948;2024-03-29T08:01:23;9.50;96.60
26541;DHT22;14206;50.202;10.948;2024-03-29T08:03:53;9.60;95.30
26541;DHT22;14206;50.202;10.948;2024-03-29T08:06:19;9.70;95.40
26541;DHT22;14206;50.202;10.948;2024-03-29T08:08:45;9.80;94.10
26541;DHT22;14206;50.202;10.948;2024-03-29T08:11:12;9.90;93.00
26541;DHT22;14206;50.202;10.948;2024-03-29T08:13:38;10.10;92.10
26541;DHT22;14206;50.202;10.948;2024-03-29T08:16:05;10.10;92.60
26541;DHT22;14206;50.202;10.948;2024-03-29T08:18:31;10.20;91.40
26541;DHT22;14206;50.202;10.948;2024-03-29T08:20:58;10.40;93.30
26541;DHT22;14206;50.202;10.948;2024-03-29T08:23:25;10.70;91.00
26541;DHT22;14206;50.202;10.948;2024-03-29T08:25:51;11.00;90.60
26541;DHT22;14206;50.202;10.948;2024-03-29T08:28:24;11.30;88.60
26541;DHT22;14206;50.202;10.948;2024-03-29T08:31:04;11.50;88.40
26541;DHT22;14206;50.202;10.948;2024-03-29T08:33:30;11.60;88.10
26541;DHT22;14206;50.202;10.948;2024-03-29T08:35:57;11.70;87.80
26541;DHT22;14206;50.202;10.948;2024-03-29T08:38:23;11.70;86.60
26541;DHT22;14206;50.202;10.948;2024-03-29T08:40:49;11.60;86.40
26541;DHT22;14206;50.202;10.948;2024-03-29T08:43:16;11.60;86.70
26541;DHT22;14206;50.202;10.948;2024-03-29T08:45:44;11.60;85.50
26541;DHT22;14206;50.202;10.948;2024-03-29T08:48:10;11.50;85.70
26541;DHT22;14206;50.202;10.948;2024-03-29T08:50:37;11.50;86.10
26541;DHT22;14206;50.202;10.948;2024-03-29T08:53:03;11.40;86.20
26541;DHT22;14206;50.202;10.948;2024-03-29T08:55:33;11.40;86.70
26541;DHT22;14206;50.202;10.948;2024-03-29T08:58:00;11.40;87.80
26541;DHT22;14206;50.202;10.948;2024-03-29T09:00:27;11.40;87.50
26541;DHT22;14206;50.202;10.948;2024-03-29T09:02:54;11.60;88.20
26541;DHT22;14206;50.202;10.948;2024-03-29T09:05:22;11.70;87.20
26541;DHT22;14206;50.202;10.948;2024-03-29T09:07:49;11.90;86.20
26541;DHT22;14206;50.202;10.948;2024-03-29T09:10:15;12.00;85.20
26541;DHT22;14206;50.202;10.948;2024-03-29T09:12:41;12.10;85.20
26541;DHT22;14206;50.202;10.948;2024-03-29T09:19:31;12.10;83.40
26541;DHT22;14206;50.202;10.948;2024-03-29T09:21:58;12.20;84.20
26541;DHT22;14206;50.202;10.948;2024-03-29T09:24:24;12.20;83.80
26541;DHT22;14206;50.202;10.948;2024-03-29T09:26:51;12.20;82.90
26541;DHT22;14206;50.202;10.948;2024-03-29T09:29:17;12.20;82.40
26541;DHT22;14206;50.202;10.948;2024-03-29T09:31:46;12.20;81.70
26541;DHT22;14206;50.202;10.948;2024-03-29T09:34:12;12.10;80.90
26541;DHT22;14206;50.202;10.948;2024-03-29T09:36:38;12.10;81.50
26541;DHT22;14206;50.202;10.948;2024-03-29T09:39:04;12.00;81.80
26541;DHT22;14206;50.202;10.948;2024-03-29T09:41:31;11.70;82.50
26541;DHT22;14206;50.202;10.948;2024-03-29T09:44:03;11.30;84.50
26541;DHT22;14206;50.202;10.948;2024-03-29T09:46:29;11.00;86.90
26541;DHT22;14206;50.202;10.948;2024-03-29T09:48:57;10.70;88.00
26541;DHT22;14206;50.202;10.948;2024-03-29T09:51:24;10.50;90.50
26541;DHT22;14206;50.202;10.948;2024-03-29T09:53:51;10.30;93.10
26541;DHT22;14206;50.202;10.948;2024-03-29T09:56:17;10.20;93.10
26541;DHT22;14206;50.202;10.948;2024-03-29T09:58:43;10.10;93.80
26541;DHT22;14206;50.202;10.948;2024-03-29T10:01:09;10.00;94.10
26541;DHT22;14206;50.202;10.948;2024-03-29T10:03:45;9.90;94.60
26541;DHT22;14206;50.202;10.948;2024-03-29T10:06:13;9.90;95.50
26541;DHT22;14206;50.202;10.948;2024-03-29T10:08:40;9.80;96.10
26541;DHT22;14206;50.202;10.948;2024-03-29T10:11:06;9.90;96.60
26541;DHT22;14206;50.202;10.948;2024-03-29T10:13:32;9.90;96.60
26541;DHT22;14206;50.202;10.948;2024-03-29T10:16:00;10.00;96.60
26541;DHT22;14206;50.202;10.948;2024-03-29T10:18:29;10.00;96.60
26541;DHT22;14206;50.202;10.948;2024-03-29T10:21:05;9.90;96.60
26541;DHT22;14206;50.202;10.948;2024-03-29T10:23:33;9.90;96.60
26541;DHT22;14206;50.202;10.948;2024-03-29T10:26:04;9.70;96.60
26541;DHT22;14206;50.202;10.948;2024-03-29T10:28:34;9.70;96.60
26541;DHT22;14206;50.202;10.948;2024-03-29T10:31:02;9.60;96.60
26541;DHT22;14206;50.202;10.948;2024-03-29T10:33:30;9.60;96.60
26541;DHT22;14206;50.202;10.948;2024-03-29T10:35:57;9.50;96.60
26541;DHT22;14206;50.202;10.948;2024-03-29T10:38:25;9.50;96.60
26541;DHT22;14206;50.202;10.948;2024-03-29T10:40:52;9.50;96.60
26541;DHT22;14206;50.202;10.948;2024-03-29T10:43:19;9.50;96.60
26541;DHT22;14206;50.202;10.948;2024-03-29T10:45:48;9.60;96.60
26541;DHT22;14206;50.202;10.948;2024-03-29T10:48:16;9.60;96.60
26541;DHT22;14206;50.202;10.948;2024-03-29T10:50:44;9.70;96.60
26541;DHT22;14206;50.202;10.948;2024-03-29T10:53:12;9.70;96.60
26541;DHT22;14206;50.202;10.948;2024-03-29T10:55:38;9.70;96.60
26541;DHT22;14206;50.202;10.948;2024-03-29T10:58:05;9.70;96.60
26541;DHT22;14206;50.202;10.948;2024-03-29T11:00:47;9.70;96.60
26541;DHT22;14206;50.202;10.948;2024-03-29T11:03:32;9.70;96.60
26541;DHT22;14206;50.202;10.948;2024-03-29T11:06:03;9.70;96.60
26541;DHT22;14206;50.202;10.948;2024-03-29T11:08:32;9.70;96.60
26541;DHT22;14206;50.202;10.948;2024-03-29T11:11:01;9.80;96.60
26541;DHT22;14206;50.202;10.948;2024-03-29T11:16:14;9.80;96.60
26541;DHT22;14206;50.202;10.948;2024-03-29T11:18:45;9.90;96.60
26541;DHT22;14206;50.202;10.948;2024-03-29T11:21:14;10.00;96.60
26541;DHT22;14206;50.202;10.948;2024-03-29T11:23:52;10.10;96.60
26541;DHT22;14206;50.202;10.948;2024-03-29T11:26:18;10.20;96.60
26541;DHT22;14206;50.202;10.948;2024-03-29T11:28:49;10.30;96.60
26541;DHT22;14206;50.202;10.948;2024-03-29T11:31:15;10.40;96.60
26541;DHT22;14206;50.202;10.948;2024-03-29T11:36:10;10.60;96.60
26541;DHT22;14206;50.202;10.948;2024-03-29T11:38:38;10.70;96.60
26541;DHT22;14206;50.202;10.948;2024-03-29T11:41:14;10.80;96.60
26541;DHT22;14206;50.202;10.948;2024-03-29T11:43:41;10.90;96.60
26541;DHT22;14206;50.202;10.948;2024-03-29T11:46:13;11.00;96.60
26541;DHT22;14206;50.202;10.948;2024-03-29T11:48:40;11.20;96.60
26541;DHT22;14206;50.202;10.948;2024-03-29T11:51:07;11.30;96.60
26541;DHT22;14206;50.202;10.948;2024-03-29T11:53:35;11.40;96.60
26541;DHT22;14206;50.202;10.948;2024-03-29T11:56:02;11.50;96.60
26541;DHT22;14206;50.202;10.948;2024-03-29T11:58:30;11.60;96.60
26541;DHT22;14206;50.202;10.948;2024-03-29T12:00:58;11.80;96.60
26541;DHT22;14206;50.202;10.948;2024-03-29T12:03:26;11.80;96.60
26541;DHT22;14206;50.202;10.948;2024-03-29T12:05:53;11.90;96.60
26541;DHT22;14206;50.202;10.948;2024-03-29T12:08:21;12.00;96.60
26541;DHT22;14206;50.202;10.948;2024-03-29T12:10:48;12.00;96.60
26541;DHT22;14206;50.202;10.948;2024-03-29T12:13:16;12.00;96.60
26541;DHT22;14206;50.202;10.948;2024-03-29T12:15:43;12.10;96.60
26541;DHT22;14206;50.202;10.948;2024-03-29T12:18:09;12.20;96.60
26541;DHT22;14206;50.202;10.948;2024-03-29T12:20:36;12.20;96.60
26541;DHT22;14206;50.202;10.948;2024-03-29T12:23:09;12.30;96.60
26541;DHT22;14206;50.202;10.948;2024-03-29T12:25:36;12.40;96.60
26541;DHT22;14206;50.202;10.948;2024-03-29T12:28:03;12.50;96.60
26541;DHT22;14206;50.202;10.948;2024-03-29T12:30:30;12.70;96.60
26541;DHT22;14206;50.202;10.948;2024-03-29T12:33:06;13.00;96.60
26541;DHT22;14206;50.202;10.948;2024-03-29T12:35:33;13.20;96.60
26541;DHT22;14206;50.202;10.948;2024-03-29T12:38:01;13.40;96.60
26541;DHT22;14206;50.202;10.948;2024-03-29T12:40:30;13.40;96.60
26541;DHT22;14206;50.202;10.948;2024-03-29T12:43:06;13.40;95.90
26541;DHT22;14206;50.202;10.948;2024-03-29T12:45:34;13.50;96.10
26541;DHT22;14206;50.202;10.948;2024-03-29T12:48:00;13.50;96.50
26541;DHT22;14206;50.202;10.948;2024-03-29T12:50:32;13.60;96.60
26541;DHT22;14206;50.202;10.948;2024-03-29T12:53:01;13.80;95.70
26541;DHT22;14206;50.202;10.948;2024-03-29T12:55:29;13.90;95.30
26541;DHT22;14206;50.202;10.948;2024-03-29T12:58:01;13.90;95.90
26541;DHT22;14206;50.202;10.948;2024-03-29T13:00:32;14.00;95.30
26541;DHT22;14206;50.202;10.948;2024-03-29T13:02:58;14.10;95.20
26541;DHT22;14206;50.202;10.948;2024-03-29T13:05:24;14.20;94.60
26541;DHT22;14206;50.202;10.948;2024-03-29T13:07:50;14.30;94.80
26541;DHT22;14206;50.202;10.948;2024-03-29T13:10:17;14.40;94.90
26541;DHT22;14206;50.202;10.948;2024-03-29T13:12:49;14.50;93.70
26541;DHT22;14206;50.202;10.948;2024-03-29T13:15:21;14.50;92.80
26541;DHT22;14206;50.202;10.948;2024-03-29T13:17:48;14.50;94.10
26541;DHT22;14206;50.202;10.948;2024-03-29T13:20:15;14.50;94.50
26541;DHT22;14206;50.202;10.948;2024-03-29T13:22:42;14.60;94.10
26541;DHT22;14206;50.202;10.948;2024-03-29T13:25:10;14.60;93.50
26541;DHT22;14206;50.202;10.948;2024-03-29T13:27:37;14.60;93.80
26541;DHT22;14206;50.202;10.948;2024-03-29T13:30:09;14.60;94.10
26541;DHT22;14206;50.202;10.948;2024-03-29T13:32:35;14.50;94.60
26541;DHT22;14206;50.202;10.948;2024-03-29T13:35:02;14.50;93.70
26541;DHT22;14206;50.202;10.948;2024-03-29T13:37:32;14.60;94.00
26541;DHT22;14206;50.202;10.948;2024-03-29T13:39:58;14.70;94.10
26541;DHT22;14206;50.202;10.948;2024-03-29T13:42:24;14.60;94.10
26541;DHT22;14206;50.202;10.948;2024-03-29T13:44:50;14.60;94.10
26541;DHT22;14206;50.202;10.948;2024-03-29T13:47:18;14.80;94.40
26541;DHT22;14206;50.202;10.948;2024-03-29T13:49:44;14.80;94.40
26541;DHT22;14206;50.202;10.948;2024-03-29T13:52:12;14.80;94.70
26541;DHT22;14206;50.202;10.948;2024-03-29T13:54:43;14.70;94.00
26541;DHT22;14206;50.202;10.948;2024-03-29T13:57:10;14.60;94.80
26541;DHT22;14206;50.202;10.948;2024-03-29T13:59:35;14.50;94.80
26541;DHT22;14206;50.202;10.948;2024-03-29T14:02:03;14.40;93.20
26541;DHT22;14206;50.202;10.948;2024-03-29T14:04:29;14.30;93.70
26541;DHT22;14206;50.202;10.948;2024-03-29T14:06:55;14.20;95.70
26541;DHT22;14206;50.202;10.948;2024-03-29T14:09:21;14.30;95.20
26541;DHT22;14206;50.202;10.948;2024-03-29T14:11:47;14.30;95.00
26541;DHT22;14206;50.202;10.948;2024-03-29T14:14:13;14.30;94.90
26541;DHT22;14206;50.202;10.948;2024-03-29T14:16:39;14.40;95.10
26541;DHT22;14206;50.202;10.948;2024-03-29T14:19:05;14.40;95.20
26541;DHT22;14206;50.202;10.948;2024-03-29T14:21:31;14.40;95.10
26541;DHT22;14206;50.202;10.948;2024-03-29T14:23:57;14.50;95.10
26541;DHT22;14206;50.202;10.948;2024-03-29T14:26:23;14.60;93.10
26541;DHT22;14206;50.202;10.948;2024-03-29T14:28:50;14.40;92.60
26541;DHT22;14206;50.202;10.948;2024-03-29T14:31:16;14.40;93.20
26541;DHT22;14206;50.202;10.948;2024-03-29T14:33:42;14.30;93.00
26541;DHT22;14206;50.202;10.948;2024-03-29T14:36:07;14.20;92.80
26541;DHT22;14206;50.202;10.948;2024-03-29T14:38:33;14.10;93.40
26541;DHT22;14206;50.202;10.948;2024-03-29T14:40:59;14.10;93.70
26541;DHT22;14206;50.202;10.948;2024-03-29T14:43:25;14.10;94.20
26541;DHT22;14206;50.202;10.948;2024-03-29T14:45:51;14.20;95.20
26541;DHT22;14206;50.202;10.948;2024-03-29T14:48:18;14.30;92.60
26541;DHT22;14206;50.202;10.948;2024-03-29T14:50:44;14.20;93.20
26541;DHT22;14206;50.202;10.948;2024-03-29T14:53:10;14.20;93.00
26541;DHT22;14206;50.202;10.948;2024-03-29T14:55:36;14.10;95.00
26541;DHT22;14206;50.202;10.948;2024-03-29T14:58:06;14.10;94.00
26541;DHT22;14206;50.202;10.948;2024-03-29T15:00:32;14.00;93.80
26541;DHT22;14206;50.202;10.948;2024-03-29T15:02:58;13.90;93.70
26541;DHT22;14206;50.202;10.948;2024-03-29T15:05:24;13.90;94.80
26541;DHT22;14206;50.202;10.948;2024-03-29T15:07:52;13.80;94.80
26541;DHT22;14206;50.202;10.948;2024-03-29T15:10:18;13.70;95.70
26541;DHT22;14206;50.202;10.948;2024-03-29T15:12:45;13.70;94.80
26541;DHT22;14206;50.202;10.948;2024-03-29T15:15:14;13.60;94.90
26541;DHT22;14206;50.202;10.948;2024-03-29T15:17:40;13.50;95.20
26541;DHT22;14206;50.202;10.948;2024-03-29T15:20:07;13.50;95.30
26541;DHT22;14206;50.202;10.948;2024-03-29T15:22:40;13.40;95.30
26541;DHT22;14206;50.202;10.948;2024-03-29T15:25:07;13.40;95.90
26541;DHT22;14206;50.202;10.948;2024-03-29T15:27:33;13.40;96.00
26541;DHT22;14206;50.202;10.948;2024-03-29T15:30:17;13.50;96.60
26541;DHT22;14206;50.202;10.948;2024-03-29T15:32:43;13.50;96.00
26541;DHT22;14206;50.202;10.948;2024-03-29T15:35:09;13.40;96.20
26541;DHT22;14206;50.202;10.948;2024-03-29T15:37:37;13.40;96.60
26541;DHT22;14206;50.202;10.948;2024-03-29T15:40:03;13.40;96.60
26541;DHT22;14206;50.202;10.948;2024-03-29T15:42:30;13.50;96.60
26541;DHT22;14206;50.202;10.948;2024-03-29T15:44:56;13.60;96.60
26541;DHT22;14206;50.202;10.948;2024-03-29T15:47:22;13.70;96.60